createdAt,value
2018-05-12T05:02:06.096Z,64.98
2018-05-12T05:04:40.123Z,64.88
2018-05-12T05:07:13.413Z,64.89
2018-05-12T05:09:46.683Z,64.82
2018-05-12T05:12:19.960Z,64.89
2018-05-12T05:14:53.211Z,64.81
2018-05-12T05:17:26.485Z,65.13
2018-05-12T05:20:00.504Z,65.16
2018-05-12T05:22:33.847Z,65.28
2018-05-12T05:25:07.115Z,65.50
2018-05-12T05:27:40.376Z,66.02
2018-05-12T05:30:14.409Z,66.22
2018-05-12T05:32:47.683Z,66.51
2018-05-12T05:35:21.695Z,66.30
2018-05-12T05:37:55.208Z,67.00
2018-05-12T05:40:28.467Z,67.31
2018-05-12T05:43:01.733Z,67.91
2018-05-12T05:45:34.994Z,67.71
2018-05-12T05:48:08.272Z,68.05
2018-05-12T05:50:42.289Z,68.37
2018-05-12T05:53:15.589Z,67.88
2018-05-12T05:55:48.848Z,68.23
2018-05-12T05:58:22.124Z,67.59
2018-05-12T06:00:55.387Z,68.09
2018-05-12T06:03:28.669Z,67.53
2018-05-12T06:06:01.920Z,67.30
2018-05-12T06:08:35.201Z,67.13
2018-05-12T06:11:08.464Z,66.73
2018-05-12T06:13:41.728Z,66.22
2018-05-12T06:16:15.762Z,65.91
2018-05-12T06:18:49.033Z,65.52
2018-05-12T06:21:22.289Z,65.21
2018-05-12T06:23:55.559Z,65.10
2018-05-12T06:26:28.814Z,64.85
2018-05-12T06:29:02.089Z,64.25
2018-05-12T06:31:35.333Z,63.94
2018-05-12T06:34:08.776Z,63.83
2018-05-12T06:36:42.049Z,63.48
2018-05-12T06:39:15.346Z,63.35
2018-05-12T06:41:48.608Z,62.47
2018-05-12T06:44:21.892Z,62.09
2018-05-12T06:46:55.144Z,62.09
2018-05-12T06:49:28.425Z,61.87
2018-05-12T06:52:01.677Z,61.04
2018-05-12T06:54:34.982Z,60.96
2018-05-12T06:57:08.252Z,60.63
2018-05-12T06:59:41.525Z,60.75
2018-05-12T07:02:14.771Z,59.96
2018-05-12T07:04:48.048Z,59.51
2018-05-12T07:07:21.312Z,59.26
2018-05-12T07:09:54.593Z,59.11
2018-05-12T07:12:27.870Z,58.83
2018-05-12T07:15:01.124Z,58.00
2018-05-12T07:17:34.396Z,57.28
2018-05-12T07:20:08.431Z,57.81
2018-05-12T07:22:41.679Z,57.80
2018-05-12T07:25:15.011Z,56.53
2018-05-12T07:27:48.269Z,57.32
2018-05-12T07:30:21.539Z,57.25
2018-05-12T07:32:54.844Z,56.61
2018-05-12T07:35:28.100Z,56.78
2018-05-12T07:38:01.376Z,57.05
2018-05-12T07:40:34.640Z,56.58
2018-05-12T07:43:07.920Z,57.15
2018-05-12T07:45:41.181Z,56.84
2018-05-12T07:48:14.455Z,56.76
2018-05-12T07:50:47.711Z,56.73
2018-05-12T07:53:20.984Z,56.45
2018-05-12T07:55:54.241Z,56.11
2018-05-12T07:58:27.507Z,56.03
2018-05-12T08:01:01.535Z,55.49
2018-05-12T08:03:35.571Z,55.38
2018-05-12T08:06:08.821Z,55.53
2018-05-12T08:08:42.870Z,55.64
2018-05-12T08:11:16.123Z,54.62
2018-05-12T08:13:49.546Z,54.80
2018-05-12T08:16:22.806Z,54.93
2018-05-12T08:18:56.543Z,55.14
2018-05-12T08:21:29.792Z,55.33
2018-05-12T08:24:03.266Z,55.04
2018-05-12T08:26:36.593Z,55.07
2018-05-12T08:29:09.935Z,55.19
2018-05-12T08:31:43.188Z,54.95
2018-05-12T08:34:16.488Z,54.86
2018-05-12T08:36:49.747Z,54.42
2018-05-12T08:39:23.041Z,54.56
2018-05-12T08:41:56.300Z,54.72
2018-05-12T08:44:29.585Z,54.49
2018-05-12T08:47:02.851Z,53.44
2018-05-12T08:49:36.146Z,53.80
2018-05-12T08:52:09.432Z,54.13
2018-05-12T08:54:42.716Z,53.68
2018-05-12T08:57:15.984Z,53.90
2018-05-12T08:59:49.261Z,54.10
2018-05-12T09:02:22.523Z,53.47
2018-05-12T09:04:55.799Z,52.53
2018-05-12T09:07:29.057Z,51.09
2018-05-12T09:10:02.341Z,51.20
2018-05-12T09:12:35.595Z,50.94
2018-05-12T09:15:08.872Z,50.93
2018-05-12T09:17:42.141Z,50.10
2018-05-12T09:20:15.419Z,50.85
2018-05-12T09:22:48.695Z,50.83
2018-05-12T09:25:22.016Z,49.56
2018-05-12T09:27:55.263Z,50.47
2018-05-12T09:30:29.316Z,49.72
2018-05-12T09:33:02.582Z,48.90
2018-05-12T09:35:36.623Z,48.49
2018-05-12T09:38:10.495Z,49.27
2018-05-12T09:40:44.540Z,49.35
2018-05-12T09:43:17.809Z,48.44
2018-05-12T09:45:51.853Z,48.37
2018-05-12T09:48:25.108Z,48.38
2018-05-12T09:50:58.406Z,48.64
2018-05-12T09:53:32.419Z,48.40
2018-05-12T09:56:06.461Z,47.38
2018-05-12T09:58:39.716Z,47.35
2018-05-12T10:01:12.997Z,47.25
2018-05-12T10:03:46.263Z,47.53
2018-05-12T10:06:19.531Z,46.32
2018-05-12T10:08:52.801Z,46.31
2018-05-12T10:11:26.841Z,45.42
2018-05-12T10:14:00.099Z,45.62
2018-05-12T10:16:34.147Z,46.29
2018-05-12T10:19:07.426Z,46.43
2018-05-12T10:21:40.698Z,45.39
2018-05-12T10:24:14.719Z,45.54
2018-05-12T10:26:48.756Z,46.17
2018-05-12T10:29:22.021Z,46.06
2018-05-12T10:31:56.071Z,46.11
2018-05-12T10:34:29.332Z,46.25
2018-05-12T10:37:02.600Z,45.86
2018-05-12T10:39:35.855Z,45.32
2018-05-12T10:42:09.133Z,43.85
2018-05-12T10:44:42.474Z,45.00
2018-05-12T10:47:15.669Z,45.14
2018-05-12T10:49:48.923Z,44.38
2018-05-12T10:52:22.205Z,44.47
2018-05-12T10:54:55.464Z,44.24
2018-05-12T10:57:29.509Z,43.75
2018-05-12T11:00:02.763Z,44.12
2018-05-12T11:02:36.036Z,44.40
2018-05-12T11:05:09.301Z,44.12
2018-05-12T11:07:42.577Z,44.20
2018-05-12T11:10:15.835Z,43.11
2018-05-12T11:12:49.116Z,42.91
2018-05-12T11:15:22.369Z,42.21
2018-05-12T11:17:55.643Z,41.73
2018-05-12T11:20:29.660Z,40.77
2018-05-12T11:23:02.933Z,40.22
2018-05-12T11:25:36.195Z,41.25
2018-05-12T11:28:09.465Z,41.53
2018-05-12T11:30:42.723Z,41.39
2018-05-12T11:33:16.760Z,40.97
2018-05-12T11:35:50.017Z,40.49
2018-05-12T11:38:30.166Z,40.98
2018-05-12T11:41:03.422Z,40.71
2018-05-12T11:43:36.692Z,40.42
2018-05-12T11:46:09.970Z,40.01
2018-05-12T11:48:44.018Z,39.46
2018-05-12T11:51:17.322Z,38.57
2018-05-12T11:53:50.539Z,38.30
2018-05-12T11:56:23.819Z,37.04
2018-05-12T11:58:57.073Z,37.24
2018-05-12T12:01:30.355Z,36.43
2018-05-12T12:04:04.378Z,33.90
2018-05-12T12:06:37.663Z,34.51
2018-05-12T12:09:11.687Z,35.56
2018-05-12T12:11:44.960Z,34.48
2018-05-12T12:14:18.988Z,35.00
2018-05-12T12:16:52.266Z,34.83
2018-05-12T12:19:26.285Z,34.59
2018-05-12T12:21:59.576Z,32.26
2018-05-12T12:24:33.600Z,33.29
2018-05-12T12:27:06.873Z,33.39
2018-05-12T12:29:40.151Z,31.49
2018-05-12T12:32:13.412Z,32.24
2018-05-12T12:34:46.688Z,31.27
2018-05-12T12:37:19.965Z,31.41
2018-05-12T12:39:53.996Z,31.56
2018-05-12T12:42:27.255Z,30.65
2018-05-12T12:45:01.335Z,28.82
2018-05-12T12:47:34.558Z,29.83
2018-05-12T12:50:08.604Z,29.14
2018-05-12T12:52:41.861Z,28.91
2018-05-12T12:55:15.133Z,28.84
2018-05-12T12:57:48.405Z,27.77
2018-05-12T13:00:21.664Z,27.35
2018-05-12T13:02:54.924Z,27.24
2018-05-12T13:05:28.217Z,26.80
2018-05-12T13:08:01.527Z,25.75
2018-05-12T13:10:35.584Z,26.76
2018-05-12T13:13:08.907Z,27.20
2018-05-12T13:15:42.868Z,26.71
2018-05-12T13:18:16.129Z,27.86
2018-05-12T13:20:49.425Z,28.54
2018-05-12T13:23:22.684Z,28.68
2018-05-12T13:25:56.315Z,28.61
2018-05-12T13:28:29.577Z,28.43
2018-05-12T13:31:02.848Z,28.26
2018-05-12T13:33:36.196Z,27.89
2018-05-12T13:36:10.159Z,26.96
2018-05-12T13:38:43.404Z,27.17
2018-05-12T13:41:16.690Z,27.29
2018-05-12T13:43:49.970Z,26.99
2018-05-12T13:46:23.245Z,27.08
2018-05-12T13:48:56.513Z,26.69
2018-05-12T13:51:29.789Z,26.28
2018-05-12T13:54:03.832Z,26.44
2018-05-12T13:56:37.079Z,26.38
2018-05-12T13:59:11.124Z,26.55
2018-05-12T14:01:44.412Z,25.74
2018-05-12T14:04:18.447Z,26.07
2018-05-12T14:06:51.707Z,25.82
2018-05-12T14:09:24.986Z,25.49
2018-05-12T14:11:58.239Z,25.01
2018-05-12T14:14:31.515Z,25.03
2018-05-12T14:17:04.780Z,23.91
2018-05-12T14:19:38.843Z,24.87
2018-05-12T14:22:12.091Z,24.12
2018-05-12T14:24:46.150Z,24.03
2018-05-12T14:27:19.408Z,24.67
2018-05-12T14:29:52.680Z,24.42
2018-05-12T14:32:26.718Z,24.58
2018-05-12T14:35:00.760Z,24.37
2018-05-12T14:37:34.025Z,24.19
2018-05-12T14:40:07.301Z,24.12
2018-05-12T14:42:41.446Z,23.46
2018-05-12T14:45:14.608Z,23.32
2018-05-12T14:47:48.698Z,22.55
2018-05-12T14:50:21.952Z,22.47
2018-05-12T14:52:55.223Z,22.42
2018-05-12T14:55:28.480Z,22.02
2018-05-12T14:58:01.797Z,21.48
2018-05-12T15:00:35.863Z,21.40
2018-05-12T15:03:09.144Z,21.22
2018-05-12T15:05:42.395Z,21.22
2018-05-12T15:08:16.519Z,20.97
2018-05-12T15:10:50.525Z,21.51
2018-05-12T15:13:24.561Z,22.52
2018-05-12T15:15:57.868Z,23.10
2018-05-12T15:18:31.180Z,23.82
2018-05-12T15:21:04.443Z,24.23
2018-05-12T15:23:37.715Z,24.67
2018-05-12T15:26:11.740Z,25.11
2018-05-12T15:28:45.020Z,25.04
2018-05-12T15:31:19.046Z,25.29
2018-05-12T15:33:52.322Z,25.35
2018-05-12T15:36:26.354Z,26.03
2018-05-12T15:38:59.708Z,26.54
2018-05-12T15:41:32.928Z,26.90
2018-05-12T15:44:06.978Z,26.83
2018-05-12T15:46:40.237Z,26.86
2018-05-12T15:49:13.508Z,26.79
2018-05-12T15:51:46.831Z,26.89
2018-05-12T15:54:20.817Z,26.52
2018-05-12T15:56:54.841Z,26.49
2018-05-12T15:59:28.115Z,26.62
2018-05-12T16:02:01.376Z,26.56
2018-05-12T16:04:34.647Z,26.17
2018-05-12T16:07:07.936Z,25.38
2018-05-12T16:09:41.209Z,25.26
2018-05-12T16:12:14.545Z,24.68
2018-05-12T16:14:48.535Z,24.02
2018-05-12T16:17:21.800Z,23.77
2018-05-12T16:19:55.820Z,23.39
2018-05-12T16:22:29.095Z,22.52
2018-05-12T16:25:02.354Z,22.71
2018-05-12T16:27:35.633Z,22.10
2018-05-12T16:30:08.884Z,21.97
2018-05-12T16:32:42.177Z,21.96
2018-05-12T16:35:16.191Z,22.37
2018-05-12T16:37:50.228Z,22.71
2018-05-12T16:40:23.495Z,22.70
2018-05-12T16:42:57.545Z,22.77
2018-05-12T16:45:30.803Z,23.24
2018-05-12T16:48:04.849Z,23.44
2018-05-12T16:50:38.164Z,23.48
2018-05-12T16:53:11.371Z,23.24
2018-05-12T16:55:44.629Z,23.02
2018-05-12T16:58:17.904Z,23.12
2018-05-12T17:00:51.162Z,22.98
2018-05-12T17:03:24.432Z,22.68
2018-05-12T17:05:57.708Z,22.82
2018-05-12T17:08:30.970Z,22.85
2018-05-12T17:11:05.015Z,22.83
2018-05-12T17:13:38.293Z,22.58
2018-05-12T17:16:11.563Z,22.86
2018-05-12T17:18:45.597Z,23.23
2018-05-12T17:21:18.891Z,23.51
2018-05-12T17:23:52.160Z,23.66
2018-05-12T17:26:25.447Z,23.88
2018-05-12T17:28:58.707Z,23.59
2018-05-12T17:31:32.756Z,23.57
2018-05-12T17:34:06.008Z,23.54
2018-05-12T17:36:39.280Z,23.55
2018-05-12T17:39:12.535Z,23.49
2018-05-12T17:41:45.811Z,23.51
2018-05-12T17:44:19.124Z,23.66
2018-05-12T17:46:52.337Z,23.75
2018-05-12T17:49:26.371Z,23.87
2018-05-12T17:51:59.648Z,24.02
2018-05-12T17:54:32.915Z,24.22
2018-05-12T17:57:06.183Z,24.40
2018-05-12T17:59:39.431Z,24.59
2018-05-12T18:02:12.720Z,24.83
2018-05-12T18:04:46.735Z,25.16
2018-05-12T18:07:20.017Z,25.46
2018-05-12T18:09:54.041Z,25.90
2018-05-12T18:12:28.085Z,26.22
2018-05-12T18:15:01.341Z,26.43
2018-05-12T18:17:35.380Z,26.93
2018-05-12T18:20:08.644Z,27.37
2018-05-12T18:22:41.925Z,27.82
2018-05-12T18:25:15.956Z,27.81
2018-05-12T18:27:49.260Z,28.92
2018-05-12T18:30:22.523Z,28.92
2018-05-12T18:32:56.575Z,29.44
2018-05-12T18:35:29.832Z,29.88
2018-05-12T18:38:05.821Z,30.08
2018-05-12T18:40:39.086Z,30.08
2018-05-12T18:43:12.471Z,30.56
2018-05-12T18:45:45.728Z,31.20
2018-05-12T18:48:19.000Z,31.36
2018-05-12T18:50:52.254Z,31.24
2018-05-12T18:53:26.299Z,31.27
2018-05-12T18:55:59.563Z,31.47
2018-05-12T18:58:32.833Z,31.80
2018-05-12T19:01:06.094Z,31.88
2018-05-12T19:03:39.471Z,33.83
2018-05-12T19:06:12.759Z,33.89
2018-05-12T19:08:46.812Z,34.20
2018-05-12T19:11:20.066Z,34.88
2018-05-12T19:13:54.132Z,35.98
2018-05-12T19:16:27.400Z,36.79
2018-05-12T19:19:00.676Z,36.99
2018-05-12T19:21:33.943Z,37.24
2018-05-12T19:24:07.219Z,37.55
2018-05-12T19:26:40.468Z,37.70
2018-05-12T19:29:13.759Z,37.91
2018-05-12T19:31:47.020Z,38.13
2018-05-12T19:34:21.052Z,38.14
2018-05-12T19:36:54.316Z,38.23
2018-05-12T19:39:27.595Z,38.66
2018-05-12T19:42:00.860Z,38.80
2018-05-12T19:44:34.139Z,39.20
2018-05-12T19:47:07.393Z,39.30
2018-05-12T19:49:40.749Z,39.70
2018-05-12T19:52:13.924Z,39.92
2018-05-12T19:54:47.202Z,39.82
2018-05-12T19:57:20.464Z,39.82
2018-05-12T19:59:53.738Z,39.85
2018-05-12T20:02:26.990Z,40.21
2018-05-12T20:05:00.268Z,39.99
2018-05-12T20:07:33.535Z,39.89
2018-05-12T20:10:06.809Z,39.75
2018-05-12T20:12:40.072Z,39.78
2018-05-12T20:15:13.373Z,39.77
2018-05-12T20:17:46.633Z,39.77
2018-05-12T20:20:20.694Z,39.67
2018-05-12T20:22:53.948Z,39.61
2018-05-12T20:25:27.553Z,39.50
2018-05-12T20:28:01.579Z,39.40
2018-05-12T20:30:34.852Z,39.27
2018-05-12T20:33:08.888Z,39.36
2018-05-12T20:35:42.177Z,39.34
2018-05-12T20:38:15.433Z,39.32
2018-05-12T20:40:48.716Z,39.25
2018-05-12T20:43:21.972Z,39.24
2018-05-12T20:45:55.247Z,39.27
2018-05-12T20:48:28.503Z,39.48
2018-05-12T20:51:01.884Z,39.52
2018-05-12T20:53:35.139Z,39.69
2018-05-12T20:56:08.427Z,39.97
2018-05-12T20:58:41.679Z,40.20
2018-05-12T21:01:14.951Z,40.31
2018-05-12T21:03:48.216Z,40.48
2018-05-12T21:06:21.484Z,40.81
2018-05-12T21:08:54.752Z,40.78
2018-05-12T21:11:28.022Z,41.01
2018-05-12T21:14:02.068Z,41.17
2018-05-12T21:16:35.469Z,41.17
2018-05-12T21:19:08.717Z,41.16
2018-05-12T21:21:42.089Z,41.33
2018-05-12T21:24:15.340Z,41.27
2018-05-12T21:26:48.621Z,41.66
2018-05-12T21:29:21.936Z,42.04
2018-05-12T21:31:55.152Z,42.37
2018-05-12T21:34:28.407Z,42.44
2018-05-12T21:37:01.675Z,42.59
2018-05-12T21:39:34.931Z,42.83
2018-05-12T21:42:08.228Z,42.99
2018-05-12T21:44:41.492Z,42.85
2018-05-12T21:47:14.759Z,42.86
2018-05-12T21:49:48.022Z,42.87
2018-05-12T21:52:21.296Z,43.13
2018-05-12T21:54:55.317Z,43.24
2018-05-12T21:57:28.591Z,43.28
2018-05-12T22:00:01.856Z,43.65
2018-05-12T22:02:35.131Z,43.66
2018-05-12T22:05:08.379Z,43.94
2018-05-12T22:07:43.519Z,43.99
2018-05-12T22:10:16.716Z,44.24
2018-05-12T22:12:49.985Z,44.29
2018-05-12T22:15:23.235Z,44.49
2018-05-12T22:17:56.512Z,44.55
2018-05-12T22:20:29.765Z,44.53
2018-05-12T22:23:03.034Z,44.37
2018-05-12T22:25:36.288Z,44.52
2018-05-12T22:28:09.582Z,44.75
